Time;durP1;ratioP1;P1;durP2;ratioP2;P2;SDS_P1;SDS_P2;PMS_P1;PMS_P2;Temp;Humidity;BMP_temperature;BMP_pressure;BME280_temperature;BME280_humidity;BME280_pressure;Samples;Min_cycle;Max_cycle;Signal;HPM_P1;HPM_P2
2022/04/30 00:02:16;;;;;;;11.93;7.65;;;14.30;51.80;;;;;;5089479;28;20020;-60
2022/04/30 00:04:45;;;;;;;14.05;7.15;;;14.30;52.00;;;;;;5088820;28;20027;-59
2022/04/30 00:07:16;;;;;;;14.10;7.50;;;14.20;52.20;;;;;;5072813;28;20581;-60
2022/04/30 00:12:28;;;;;;;14.32;7.60;;;14.10;52.40;;;;;;5093687;28;20404;-61
2022/04/30 00:14:55;;;;;;;13.73;6.95;;;14.10;52.60;;;;;;5094745;28;20016;-59
2022/04/30 00:17:21;;;;;;;14.65;7.35;;;14.00;52.60;;;;;;5093182;28;20024;-63
2022/04/30 00:19:47;;;;;;;10.35;7.15;;;14.10;52.80;;;;;;5093311;28;20024;-61
2022/04/30 00:22:13;;;;;;;11.57;7.75;;;14.00;52.80;;;;;;5093007;28;20031;-60
2022/04/30 00:24:38;;;;;;;13.48;8.40;;;14.00;52.90;;;;;;5094092;28;20385;-59
2022/04/30 00:27:05;;;;;;;12.23;7.70;;;14.00;52.90;;;;;;5093538;28;20107;-59
2022/04/30 00:29:31;;;;;;;11.15;7.28;;;14.00;52.90;;;;;;5092784;28;20024;-59
2022/04/30 00:32:00;;;;;;;11.68;7.63;;;14.00;52.80;;;;;;5094355;28;20028;-60
2022/04/30 00:34:26;;;;;;;14.10;7.95;;;14.10;52.80;;;;;;5093819;28;20153;-59
2022/04/30 00:36:51;;;;;;;13.40;7.00;;;14.10;52.90;;;;;;5094182;28;20107;-61
2022/04/30 00:39:17;;;;;;;13.70;7.50;;;14.00;52.90;;;;;;5094062;28;20041;-59
2022/04/30 00:41:44;;;;;;;12.88;8.65;;;14.10;52.90;;;;;;5093421;28;20292;-58
2022/04/30 00:44:10;;;;;;;14.43;7.43;;;14.00;52.90;;;;;;5092510;28;20044;-58
2022/04/30 00:46:36;;;;;;;14.40;7.70;;;14.10;52.90;;;;;;5093465;28;20024;-60
2022/04/30 00:49:03;;;;;;;16.27;8.32;;;14.00;53.00;;;;;;5092576;28;20024;-59
2022/04/30 00:51:29;;;;;;;14.13;8.50;;;14.00;53.10;;;;;;5093145;28;20190;-60
2022/04/30 00:53:56;;;;;;;17.83;7.43;;;13.90;53.10;;;;;;5093957;28;20099;-61
2022/04/30 00:56:36;;;;;;;15.57;8.40;;;13.90;53.30;;;;;;5093977;28;20024;-61
2022/04/30 00:59:06;;;;;;;18.95;7.80;;;13.80;53.40;;;;;;5092453;28;20024;-59
2022/04/30 01:01:33;;;;;;;16.20;8.32;;;13.70;53.50;;;;;;5093130;28;20039;-60
2022/04/30 01:03:59;;;;;;;15.82;8.25;;;13.70;53.80;;;;;;5093800;28;20016;-60
2022/04/30 01:06:57;;;;;;;20.52;8.07;;;13.60;53.80;;;;;;5093384;28;20055;-64
2022/04/30 01:09:24;;;;;;;16.83;7.95;;;13.60;54.30;;;;;;5091482;28;20052;-62
2022/04/30 01:12:02;;;;;;;14.20;7.35;;;13.50;54.20;;;;;;5093191;28;20086;-59
2022/04/30 01:14:31;;;;;;;10.68;6.90;;;13.40;54.40;;;;;;5092932;28;20036;-63
2022/04/30 01:16:57;;;;;;;11.00;6.80;;;13.40;54.50;;;;;;5092225;28;20510;-59
2022/04/30 01:19:24;;;;;;;10.43;6.43;;;13.30;54.50;;;;;;5093582;28;20035;-59
2022/04/30 01:21:53;;;;;;;12.25;6.78;;;13.20;54.70;;;;;;5091204;28;20089;-59
2022/04/30 01:24:23;;;;;;;10.23;6.38;;;13.10;55.00;;;;;;5091528;28;20095;-61
2022/04/30 01:26:51;;;;;;;11.93;6.85;;;13.10;55.30;;;;;;5090424;28;20420;-59
2022/04/30 01:29:23;;;;;;;11.18;6.80;;;13.00;55.30;;;;;;5091277;28;20027;-63
2022/04/30 01:37:38;;;;;;;10.40;6.80;;;13.10;55.00;;;;;;5086680;28;20176;-60
2022/04/30 01:40:08;;;;;;;13.70;6.63;;;13.10;54.90;;;;;;5086192;28;20468;-59
2022/04/30 01:42:43;;;;;;;13.80;6.72;;;13.10;54.80;;;;;;5099761;27;20065;-61
2022/04/30 01:45:10;;;;;;;12.35;7.03;;;13.20;54.70;;;;;;5111540;27;20091;-60
2022/04/30 01:47:40;;;;;;;12.57;6.57;;;13.30;54.70;;;;;;5127700;27;20019;-60
2022/04/30 01:50:08;;;;;;;11.93;7.20;;;13.20;54.60;;;;;;5128192;27;20084;-58
2022/04/30 01:52:33;;;;;;;9.75;6.88;;;13.30;54.60;;;;;;5127593;27;20185;-61
2022/04/30 01:54:59;;;;;;;13.82;7.78;;;13.30;54.70;;;;;;5128814;27;20443;-61
2022/04/30 01:57:26;;;;;;;10.23;6.90;;;13.30;54.80;;;;;;5129474;27;20015;-62
2022/04/30 02:00:00;;;;;;;10.77;7.07;;;13.20;54.90;;;;;;5127315;27;20134;-60
2022/04/30 02:02:37;;;;;;;10.95;7.60;;;13.20;55.00;;;;;;5128061;27;20050;-60
2022/04/30 02:05:07;;;;;;;11.15;7.20;;;13.20;55.20;;;;;;5109519;27;20093;-62
2022/04/30 02:07:37;;;;;;;9.85;7.20;;;13.10;55.20;;;;;;5125719;27;20034;-64
2022/04/30 02:10:05;;;;;;;13.43;7.90;;;13.10;55.30;;;;;;5108517;27;20384;-64
2022/04/30 02:12:32;;;;;;;11.05;7.88;;;13.00;55.30;;;;;;5108090;27;20067;-64
2022/04/30 02:14:59;;;;;;;11.25;7.03;;;13.00;55.30;;;;;;5109225;27;20023;-60
2022/04/30 02:17:29;;;;;;;15.45;7.18;;;13.00;55.40;;;;;;5127477;27;20084;-62
2022/04/30 02:22:40;;;;;;;15.30;7.35;;;13.10;55.50;;;;;;5128378;27;20029;-61
2022/04/30 02:25:11;;;;;;;16.52;7.05;;;13.00;55.40;;;;;;5109296;27;20495;-61
2022/04/30 02:27:44;;;;;;;12.13;6.75;;;13.00;55.60;;;;;;5129159;27;20421;-61
2022/04/30 02:30:17;;;;;;;12.40;6.97;;;13.00;55.80;;;;;;5129389;27;20069;-64
2022/04/30 02:32:46;;;;;;;10.30;6.47;;;13.00;56.00;;;;;;5128013;27;20270;-60
2022/04/30 02:35:21;;;;;;;11.45;6.88;;;12.90;56.00;;;;;;5126796;27;20094;-61
2022/04/30 02:37:49;;;;;;;8.82;6.85;;;12.90;56.10;;;;;;5126761;27;20050;-61
2022/04/30 02:40:16;;;;;;;10.85;6.70;;;12.90;56.10;;;;;;5127708;27;20057;-61
2022/04/30 02:42:44;;;;;;;12.10;6.90;;;12.90;56.20;;;;;;5126133;27;20043;-63
2022/04/30 02:45:12;;;;;;;14.07;6.90;;;12.80;56.00;;;;;;5127273;27;20022;-61
2022/04/30 02:47:40;;;;;;;9.85;6.90;;;12.90;56.00;;;;;;5126845;27;20094;-62
2022/04/30 02:50:11;;;;;;;10.10;6.55;;;12.90;55.90;;;;;;5127399;27;20031;-59
2022/04/30 02:52:43;;;;;;;12.70;7.07;;;12.90;55.80;;;;;;5127056;27;20583;-59
2022/04/30 02:55:09;;;;;;;10.38;6.95;;;12.90;55.70;;;;;;5127652;27;20031;-60
2022/04/30 03:00:35;;;;;;;12.45;7.32;;;13.00;55.70;;;;;;5126171;27;20076;-62
2022/04/30 03:03:01;;;;;;;10.25;6.85;;;12.90;55.80;;;;;;5128469;27;20019;-61
2022/04/30 03:05:27;;;;;;;13.00;6.78;;;12.90;56.00;;;;;;5127442;27;20597;-63
2022/04/30 03:07:53;;;;;;;9.85;6.63;;;12.80;55.90;;;;;;5107602;28;20019;-61
2022/04/30 03:10:22;;;;;;;14.93;7.00;;;12.80;56.00;;;;;;5126732;27;20019;-63
2022/04/30 03:12:51;;;;;;;9.63;6.63;;;12.80;56.20;;;;;;5107508;28;20042;-59
2022/04/30 03:15:21;;;;;;;12.07;6.53;;;12.80;56.20;;;;;;5126480;28;20019;-62
2022/04/30 03:23:17;;;;;;;11.23;7.38;;;12.80;56.10;;;;;;5127886;28;20038;-58
2022/04/30 03:25:44;;;;;;;11.10;6.68;;;12.80;56.10;;;;;;5126083;28;20098;-58
2022/04/30 03:28:10;;;;;;;13.63;6.47;;;12.80;56.20;;;;;;5128754;27;20471;-60
2022/04/30 03:30:36;;;;;;;13.93;6.95;;;12.70;56.00;;;;;;5127998;27;20042;-59
2022/04/30 03:33:02;;;;;;;13.02;6.35;;;12.70;56.20;;;;;;5126045;27;20027;-61
2022/04/30 03:35:28;;;;;;;12.18;7.13;;;12.70;56.20;;;;;;5126078;27;20563;-61
2022/04/30 03:37:54;;;;;;;11.15;7.03;;;12.70;56.00;;;;;;5125412;27;20133;-61
2022/04/30 03:40:22;;;;;;;11.65;6.93;;;12.70;56.00;;;;;;5125641;27;20370;-64
2022/04/30 03:42:48;;;;;;;13.60;7.20;;;12.70;55.30;;;;;;5106695;28;20064;-60
2022/04/30 03:45:14;;;;;;;11.00;7.15;;;12.70;55.40;;;;;;5107379;27;20023;-65
2022/04/30 03:47:41;;;;;;;13.65;6.35;;;12.70;55.60;;;;;;5128694;27;20067;-61
2022/04/30 03:50:07;;;;;;;10.10;7.65;;;12.70;55.80;;;;;;5111461;27;20027;-64
2022/04/30 03:52:33;;;;;;;14.52;7.10;;;12.60;56.10;;;;;;5128990;27;20024;-66
2022/04/30 03:54:59;;;;;;;9.40;6.07;;;12.60;56.20;;;;;;5111229;27;20055;-64
2022/04/30 03:57:25;;;;;;;9.88;6.30;;;12.60;56.30;;;;;;5129581;27;20019;-61
2022/04/30 03:59:51;;;;;;;9.73;6.63;;;12.60;56.30;;;;;;5110391;27;20026;-62
2022/04/30 04:02:18;;;;;;;11.95;6.70;;;12.60;56.20;;;;;;5130589;27;20023;-63
2022/04/30 04:04:45;;;;;;;11.65;6.88;;;12.60;56.30;;;;;;5111578;27;20494;-63
2022/04/30 04:07:10;;;;;;;9.30;6.10;;;12.60;56.40;;;;;;5129333;27;20027;-63
2022/04/30 04:09:36;;;;;;;10.80;6.38;;;12.60;56.40;;;;;;5128800;27;20034;-62
2022/04/30 04:12:02;;;;;;;18.45;6.45;;;12.60;56.40;;;;;;5129446;27;20019;-59
2022/04/30 04:17:37;;;;;;;15.82;7.13;;;12.60;56.50;;;;;;5128986;27;20050;-66
2022/04/30 04:20:07;;;;;;;10.07;6.25;;;12.60;56.50;;;;;;5130381;27;20515;-61
2022/04/30 04:22:32;;;;;;;10.90;6.63;;;12.50;56.50;;;;;;5128296;27;20019;-64
2022/04/30 04:27:42;;;;;;;13.18;6.90;;;12.50;56.30;;;;;;5130314;27;20068;-58
2022/04/30 04:30:08;;;;;;;10.65;6.85;;;12.60;56.20;;;;;;5131074;27;20023;-61
2022/04/30 04:32:34;;;;;;;17.73;7.18;;;12.60;56.10;;;;;;5110303;27;20060;-65
2022/04/30 04:35:00;;;;;;;14.38;7.38;;;12.60;56.20;;;;;;5130377;27;20051;-57
2022/04/30 04:37:26;;;;;;;12.45;7.40;;;12.60;56.10;;;;;;5110176;27;20023;-60
2022/04/30 04:39:51;;;;;;;20.13;7.72;;;12.70;56.10;;;;;;5128207;27;20626;-60
2022/04/30 04:42:19;;;;;;;10.90;6.97;;;12.70;56.00;;;;;;5128501;27;20119;-62
2022/04/30 04:44:45;;;;;;;16.17;7.53;;;12.80;55.80;;;;;;5128636;27;20043;-58
2022/04/30 04:47:14;;;;;;;10.57;6.75;;;12.90;55.70;;;;;;5126250;27;20015;-61
2022/04/30 04:49:43;;;;;;;15.18;7.22;;;12.90;55.60;;;;;;5127272;27;20023;-63
2022/04/30 04:52:10;;;;;;;13.60;8.02;;;13.00;55.40;;;;;;5128540;27;20095;-60
2022/04/30 04:54:36;;;;;;;11.10;7.10;;;13.10;55.30;;;;;;5108689;27;20074;-63
2022/04/30 04:57:03;;;;;;;15.43;7.65;;;13.10;54.70;;;;;;5109372;27;20054;-60
2022/04/30 04:59:29;;;;;;;17.88;9.82;;;13.20;54.40;;;;;;5108770;27;20020;-60
2022/04/30 05:01:54;;;;;;;16.42;9.90;;;13.30;54.30;;;;;;5128038;27;20026;-62
2022/04/30 05:04:20;;;;;;;19.58;9.35;;;13.40;54.10;;;;;;5128828;27;20027;-60
2022/04/30 05:07:05;;;;;;;23.30;9.05;;;13.50;52.70;;;;;;5110215;27;20072;-59
2022/04/30 05:09:33;;;;;;;14.60;8.95;;;13.60;52.90;;;;;;5130641;27;20038;-63
2022/04/30 05:12:01;;;;;;;18.20;10.25;;;13.70;52.60;;;;;;5131312;27;20368;-62
2022/04/30 05:14:34;;;;;;;21.60;10.30;;;13.80;51.50;;;;;;5127781;27;20076;-61
2022/04/30 05:17:01;;;;;;;16.73;8.75;;;13.90;50.20;;;;;;5128458;27;20034;-62
2022/04/30 05:19:26;;;;;;;19.92;11.27;;;14.00;49.80;;;;;;5127646;27;20398;-61
2022/04/30 05:21:52;;;;;;;16.02;8.95;;;14.10;49.30;;;;;;5108359;27;20011;-59
2022/04/30 05:24:18;;;;;;;14.43;9.32;;;14.10;48.70;;;;;;5109572;27;20080;-64
2022/04/30 05:26:44;;;;;;;13.15;7.70;;;14.20;48.30;;;;;;5108566;27;20015;-59
2022/04/30 05:29:10;;;;;;;14.52;7.70;;;14.20;49.80;;;;;;5130175;27;20019;-62
2022/04/30 05:31:35;;;;;;;17.25;8.20;;;14.20;50.80;;;;;;5128606;27;20027;-63
2022/04/30 05:34:01;;;;;;;11.63;7.78;;;14.20;51.20;;;;;;5109113;27;20428;-60
2022/04/30 05:39:12;;;;;;;11.82;7.38;;;14.30;51.30;;;;;;5127564;27;20613;-60
2022/04/30 05:41:38;;;;;;;14.00;7.05;;;14.40;51.40;;;;;;5127494;27;20104;-60
2022/04/30 05:44:04;;;;;;;11.68;7.45;;;14.30;51.60;;;;;;5128445;27;20623;-58
2022/04/30 05:46:29;;;;;;;14.30;7.85;;;14.20;51.80;;;;;;5109717;27;20467;-63
2022/04/30 05:48:55;;;;;;;11.35;7.35;;;14.20;52.00;;;;;;5108458;27;20491;-61
2022/04/30 05:51:21;;;;;;;15.45;8.35;;;14.10;52.10;;;;;;5129152;27;20031;-61
2022/04/30 05:53:46;;;;;;;12.05;7.80;;;14.10;52.30;;;;;;5126789;27;20034;-56
2022/04/30 05:56:12;;;;;;;14.15;7.90;;;14.10;52.30;;;;;;5109021;27;20027;-61
2022/04/30 05:58:38;;;;;;;15.80;7.78;;;14.10;52.30;;;;;;5125943;27;20051;-63
2022/04/30 06:01:05;;;;;;;13.88;7.85;;;14.10;52.20;;;;;;5108626;27;20570;-60
2022/04/30 06:03:34;;;;;;;10.65;8.32;;;14.10;52.00;;;;;;5128557;27;20025;-62
2022/04/30 06:06:00;;;;;;;9.73;7.47;;;14.10;51.70;;;;;;5125974;27;20019;-63
2022/04/30 06:08:25;;;;;;;12.63;7.78;;;14.20;51.80;;;;;;5129116;27;20047;-61
2022/04/30 06:10:51;;;;;;;11.93;8.18;;;14.30;51.50;;;;;;5107455;27;20054;-61
2022/04/30 06:13:17;;;;;;;11.98;8.13;;;14.50;51.00;;;;;;5126395;27;20035;-62
2022/04/30 06:15:43;;;;;;;18.30;8.98;;;14.60;50.60;;;;;;5107444;27;20533;-61
2022/04/30 06:18:08;;;;;;;15.52;8.73;;;14.70;50.20;;;;;;5108324;27;20020;-62
2022/04/30 06:20:35;;;;;;;16.92;9.82;;;14.80;49.70;;;;;;5125791;27;20587;-64
2022/04/30 06:23:00;;;;;;;16.30;8.85;;;14.90;49.30;;;;;;5127143;27;20102;-58
2022/04/30 06:25:27;;;;;;;16.23;9.45;;;15.10;48.80;;;;;;5109062;27;20146;-61
2022/04/30 06:27:53;;;;;;;13.82;9.48;;;15.10;48.20;;;;;;5092324;27;20031;-61
2022/04/30 06:30:18;;;;;;;18.50;9.25;;;15.20;48.00;;;;;;5126607;27;20022;-59
2022/04/30 06:32:44;;;;;;;16.42;10.07;;;15.30;47.30;;;;;;5111719;27;20026;-59
2022/04/30 06:35:10;;;;;;;17.17;10.23;;;15.40;47.30;;;;;;5108455;27;20023;-61
2022/04/30 06:37:35;;;;;;;16.52;9.55;;;15.50;47.10;;;;;;5126563;27;20019;-64
2022/04/30 06:40:01;;;;;;;16.02;9.55;;;15.60;46.90;;;;;;5126558;27;20128;-60
2022/04/30 06:42:27;;;;;;;12.25;9.35;;;15.80;46.40;;;;;;5107088;27;20372;-64
2022/04/30 06:44:54;;;;;;;12.93;9.20;;;15.90;46.00;;;;;;5125656;27;20015;-61
2022/04/30 06:47:21;;;;;;;15.55;10.10;;;16.10;45.70;;;;;;5109193;27;20046;-60
2022/04/30 06:49:46;;;;;;;18.30;10.25;;;16.30;45.50;;;;;;5107754;27;20055;-62
2022/04/30 06:52:12;;;;;;;13.88;9.48;;;16.50;44.90;;;;;;5107148;27;20048;-62
2022/04/30 06:57:22;;;;;;;16.77;10.82;;;17.00;44.60;;;;;;5129692;27;20156;-64
2022/04/30 06:59:52;;;;;;;17.20;10.43;;;17.30;43.20;;;;;;5127854;27;20102;-60
2022/04/30 07:02:20;;;;;;;17.92;10.90;;;17.40;42.10;;;;;;5125917;27;20024;-64
2022/04/30 07:04:49;;;;;;;15.65;10.13;;;17.60;42.10;;;;;;5106999;27;20026;-62
2022/04/30 07:07:15;;;;;;;22.90;10.48;;;18.10;41.90;;;;;;5108250;28;20110;-61
2022/04/30 07:09:42;;;;;;;16.02;10.55;;;19.20;40.50;;;;;;5127842;28;20026;-61
2022/04/30 07:12:09;;;;;;;20.75;10.88;;;21.30;38.40;;;;;;5125957;28;20027;-61
2022/04/30 07:14:36;;;;;;;16.50;9.20;;;23.30;34.80;;;;;;5126518;27;20040;-65
2022/04/30 07:17:06;;;;;;;13.32;9.95;;;25.30;32.80;;;;;;5128373;27;20072;-62
2022/04/30 07:19:32;;;;;;;16.73;9.00;;;27.30;29.60;;;;;;5127053;27;20497;-61
2022/04/30 07:21:58;;;;;;;16.50;9.10;;;28.50;28.50;;;;;;5109802;27;20019;-61
2022/04/30 07:24:24;;;;;;;13.30;9.23;;;29.80;27.60;;;;;;5130878;27;20076;-61
2022/04/30 07:26:50;;;;;;;13.35;9.80;;;30.80;26.70;;;;;;5131740;27;20053;-60
2022/04/30 07:29:16;;;;;;;17.83;7.93;;;32.10;25.80;;;;;;5134724;27;20217;-60
2022/04/30 07:31:42;;;;;;;12.55;9.27;;;33.50;25.50;;;;;;5134460;27;20094;-60
2022/04/30 07:34:11;;;;;;;13.57;9.15;;;34.60;24.20;;;;;;5135410;27;20019;-62
2022/04/30 07:36:37;;;;;;;17.30;9.10;;;35.20;23.50;;;;;;5115714;27;20077;-65
2022/04/30 07:39:03;;;;;;;13.00;8.65;;;35.30;23.00;;;;;;5116204;27;20365;-61
2022/04/30 07:41:29;;;;;;;16.08;8.68;;;35.00;23.10;;;;;;5115932;27;20056;-61
2022/04/30 07:43:55;;;;;;;12.85;9.10;;;35.30;23.00;;;;;;5115646;27;20055;-63
2022/04/30 07:46:24;;;;;;;15.20;9.30;;;36.20;22.70;;;;;;5134738;27;20069;-63
2022/04/30 07:48:53;;;;;;;13.98;9.93;;;37.30;22.10;;;;;;5134325;27;20027;-61
2022/04/30 07:51:33;;;;;;;16.13;9.65;;;38.40;21.60;;;;;;5115936;27;20388;-62
2022/04/30 07:54:00;;;;;;;13.38;9.20;;;39.50;21.20;;;;;;5115604;27;20019;-60
2022/04/30 07:56:26;;;;;;;14.32;8.75;;;40.70;20.60;;;;;;5134154;27;20033;-61
2022/04/30 07:58:52;;;;;;;11.15;8.65;;;41.20;20.40;;;;;;5135254;27;20019;-60
2022/04/30 08:01:18;;;;;;;17.60;9.35;;;41.10;20.20;;;;;;5116240;27;20235;-59
2022/04/30 08:03:44;;;;;;;20.92;8.75;;;40.80;19.80;;;;;;5134373;27;20422;-59
2022/04/30 08:06:11;;;;;;;13.93;9.10;;;39.60;19.70;;;;;;5135150;27;20069;-60
2022/04/30 08:08:38;;;;;;;14.43;9.13;;;39.40;20.00;;;;;;5135039;27;20034;-64
2022/04/30 08:11:04;;;;;;;13.25;8.48;;;39.60;20.00;;;;;;5134628;27;20042;-60
2022/04/30 08:13:31;;;;;;;11.95;8.18;;;40.30;20.00;;;;;;5134846;27;20080;-60
2022/04/30 08:15:57;;;;;;;17.48;8.73;;;40.40;19.90;;;;;;5115740;27;20087;-60
2022/04/30 08:18:24;;;;;;;11.90;8.50;;;40.50;20.00;;;;;;5134643;27;20464;-59
2022/04/30 08:20:51;;;;;;;13.50;8.65;;;40.00;19.90;;;;;;5134011;27;20032;-61
2022/04/30 08:23:18;;;;;;;15.10;7.97;;;39.40;20.00;;;;;;5134525;27;20030;-61
2022/04/30 08:25:44;;;;;;;11.10;8.13;;;39.20;19.90;;;;;;5114972;27;20388;-59
2022/04/30 08:28:10;;;;;;;13.40;8.82;;;39.90;20.00;;;;;;5115579;27;20031;-60
2022/04/30 08:30:35;;;;;;;13.27;8.70;;;41.40;19.80;;;;;;5115358;27;20022;-64
2022/04/30 08:33:01;;;;;;;12.10;8.05;;;43.10;19.40;;;;;;5132309;27;20479;-60
2022/04/30 08:35:27;;;;;;;10.63;8.50;;;43.60;19.00;;;;;;5133976;27;20026;-59
2022/04/30 08:37:53;;;;;;;9.32;8.10;;;44.10;19.00;;;;;;5133357;27;20489;-61
2022/04/30 08:40:19;;;;;;;18.02;8.65;;;44.00;19.10;;;;;;5133791;27;20117;-59
2022/04/30 08:42:46;;;;;;;12.48;8.25;;;43.30;18.70;;;;;;5114272;27;20130;-60
2022/04/30 08:45:12;;;;;;;14.35;8.32;;;42.30;18.90;;;;;;5115349;27;20285;-59
2022/04/30 08:47:40;;;;;;;12.23;8.32;;;41.70;19.20;;;;;;5114946;27;20027;-63
2022/04/30 08:50:10;;;;;;;12.90;8.82;;;41.50;19.30;;;;;;5132556;27;20480;-59
2022/04/30 08:52:36;;;;;;;10.73;8.30;;;41.60;19.40;;;;;;5114669;27;20028;-64
2022/04/30 08:55:05;;;;;;;10.32;8.20;;;41.40;19.20;;;;;;5133645;27;20027;-59
2022/04/30 08:57:31;;;;;;;11.10;8.70;;;40.80;19.30;;;;;;5110747;27;20436;-59
2022/04/30 09:00:01;;;;;;;15.38;9.35;;;40.10;19.30;;;;;;5114271;27;20057;-59
2022/04/30 09:02:27;;;;;;;14.98;8.27;;;38.70;19.60;;;;;;5133477;27;20019;-58
2022/04/30 09:04:54;;;;;;;17.35;9.23;;;36.90;20.10;;;;;;5114460;27;20020;-61
2022/04/30 09:07:25;;;;;;;15.02;10.05;;;34.90;20.90;;;;;;5133547;27;20480;-61
2022/04/30 09:09:55;;;;;;;16.02;10.27;;;32.90;22.00;;;;;;5132792;27;20476;-59
2022/04/30 09:12:23;;;;;;;15.85;10.40;;;31.40;22.90;;;;;;5114781;27;20030;-58
2022/04/30 09:14:50;;;;;;;14.55;10.77;;;30.20;23.70;;;;;;5132777;27;20108;-59
2022/04/30 09:17:16;;;;;;;11.93;9.82;;;29.10;24.50;;;;;;5114140;27;20027;-59
2022/04/30 09:19:46;;;;;;;15.52;9.77;;;28.40;24.90;;;;;;5113974;27;20027;-59
2022/04/30 09:22:17;;;;;;;20.85;10.05;;;27.80;25.40;;;;;;5133429;27;20015;-59
2022/04/30 09:24:50;;;;;;;15.18;8.98;;;27.10;26.30;;;;;;5113955;27;20019;-59
2022/04/30 09:27:17;;;;;;;;;;;26.30;26.90;;;;;;5133444;27;20026;-59
2022/04/30 09:29:43;;;;;;;21.75;10.02;;;25.70;26.90;;;;;;5132065;27;19904;-58
2022/04/30 09:32:26;;;;;;;15.75;9.48;;;25.30;27.10;;;;;;5113887;27;20477;-59
2022/04/30 09:37:49;;;;;;;15.88;10.60;;;24.70;27.80;;;;;;5132766;27;20038;-65
2022/04/30 09:40:14;;;;;;;11.57;9.45;;;24.40;28.20;;;;;;5114064;27;20019;-59
2022/04/30 09:42:42;;;;;;;12.73;8.77;;;24.40;28.30;;;;;;5130754;27;20152;-61
2022/04/30 09:45:34;;;;;;;16.15;9.20;;;24.10;28.10;;;;;;5111871;27;20031;-60
2022/04/30 09:53:56;;;;;;;16.98;9.27;;;24.00;28.40;;;;;;5112706;27;20026;-62
2022/04/30 09:56:39;;;;;;;13.32;9.68;;;23.80;28.70;;;;;;5130743;27;20097;-62
2022/04/30 09:59:13;;;;;;;15.45;9.15;;;23.70;28.80;;;;;;5095587;27;20051;-59
2022/04/30 10:01:45;;;;;;;15.00;9.75;;;23.30;29.30;;;;;;5129727;27;20027;-64
2022/04/30 10:04:15;;;;;;;12.95;8.80;;;23.00;29.30;;;;;;5113672;27;20111;-60
2022/04/30 10:06:53;;;;;;;13.20;8.38;;;23.10;29.40;;;;;;5131773;27;20020;-66
2022/04/30 10:09:28;;;;;;;13.23;8.32;;;22.90;29.40;;;;;;5098826;27;20034;-60
2022/04/30 10:12:09;;;;;;;14.10;8.27;;;22.60;29.50;;;;;;5131876;27;20480;-62
2022/04/30 10:14:57;;;;;;;11.68;8.10;;;22.40;29.80;;;;;;5132009;27;20023;-59
2022/04/30 10:17:25;;;;;;;13.13;7.50;;;22.20;30.00;;;;;;5113473;27;20266;-60
2022/04/30 10:20:04;;;;;;;11.38;8.00;;;22.10;30.70;;;;;;5130537;27;20015;-61
2022/04/30 10:22:31;;;;;;;14.85;8.90;;;22.10;31.00;;;;;;5131746;27;20019;-62
2022/04/30 10:24:58;;;;;;;11.95;8.07;;;22.20;30.70;;;;;;5112819;27;20031;-63
2022/04/30 10:27:36;;;;;;;12.23;7.55;;;22.10;30.60;;;;;;5132308;27;20045;-60
2022/04/30 10:30:03;;;;;;;13.25;8.02;;;22.00;30.90;;;;;;5132036;27;20106;-60
2022/04/30 10:32:34;;;;;;;11.43;8.38;;;22.00;31.00;;;;;;5113557;27;20474;-58
2022/04/30 10:35:01;;;;;;;14.85;8.85;;;21.90;31.40;;;;;;5113024;27;20322;-61
2022/04/30 10:37:33;;;;;;;17.80;8.65;;;21.90;31.70;;;;;;5130704;27;20054;-63
2022/04/30 10:40:00;;;;;;;14.27;8.85;;;21.80;31.90;;;;;;5129299;27;20101;-62
2022/04/30 10:42:45;;;;;;;11.98;7.38;;;21.70;31.90;;;;;;5131949;27;20051;-60
2022/04/30 10:45:15;;;;;;;16.98;8.68;;;21.90;31.90;;;;;;5113806;27;20023;-59
2022/04/30 10:47:59;;;;;;;15.18;9.15;;;22.10;31.40;;;;;;5132220;27;20015;-66
2022/04/30 10:50:25;;;;;;;13.43;7.28;;;22.30;30.70;;;;;;5112988;27;20050;-59
2022/04/30 10:52:54;;;;;;;15.98;7.85;;;22.20;30.90;;;;;;5131777;27;20035;-61
2022/04/30 10:55:21;;;;;;;15.00;9.07;;;22.20;30.50;;;;;;5112587;28;20106;-59
2022/04/30 10:57:47;;;;;;;16.25;9.13;;;22.10;30.90;;;;;;5130785;27;20019;-60
2022/04/30 11:00:14;;;;;;;13.27;8.40;;;22.00;31.20;;;;;;5113333;28;20028;-59
2022/04/30 11:02:40;;;;;;;12.82;9.13;;;22.00;31.20;;;;;;5131666;27;20054;-59
2022/04/30 11:05:18;;;;;;;15.25;8.48;;;22.10;31.00;;;;;;5095642;27;20027;-63
2022/04/30 11:07:45;;;;;;;12.32;8.65;;;22.00;31.30;;;;;;5131335;27;20034;-66
2022/04/30 11:10:12;;;;;;;14.57;9.70;;;22.10;31.30;;;;;;5131233;27;20024;-60
2022/04/30 11:12:38;;;;;;;13.30;8.18;;;22.20;31.50;;;;;;5112784;28;20033;-64
2022/04/30 11:15:04;;;;;;;11.32;7.88;;;22.10;31.60;;;;;;5112753;28;20273;-59
2022/04/30 11:17:41;;;;;;;18.67;9.70;;;22.10;31.50;;;;;;5131845;27;20023;-59
2022/04/30 11:20:07;;;;;;;10.55;5.68;;;22.10;31.30;;;;;;5130516;28;20019;-60
2022/04/30 11:22:33;;;;;;;9.32;5.45;;;22.10;29.90;;;;;;5112349;28;20064;-61
2022/04/30 11:24:59;;;;;;;9.20;5.32;;;22.00;29.80;;;;;;5128962;27;20032;-60
2022/04/30 11:27:29;;;;;;;8.75;5.82;;;22.00;29.90;;;;;;5110956;28;20030;-63
2022/04/30 11:29:57;;;;;;;13.05;5.55;;;22.10;29.60;;;;;;5111135;28;20035;-62
2022/04/30 11:32:27;;;;;;;8.52;5.50;;;22.10;29.60;;;;;;5130727;27;20023;-60
2022/04/30 11:35:01;;;;;;;10.32;5.53;;;22.10;29.40;;;;;;5111363;28;20030;-61
2022/04/30 11:37:27;;;;;;;10.43;4.80;;;22.10;29.20;;;;;;5130681;28;20028;-61
2022/04/30 11:39:53;;;;;;;9.05;4.55;;;22.10;29.20;;;;;;5129685;27;20024;-61
2022/04/30 11:42:25;;;;;;;8.88;4.97;;;22.30;29.40;;;;;;5130238;27;20169;-61
2022/04/30 11:44:54;;;;;;;7.75;5.22;;;22.40;29.30;;;;;;5110505;28;20098;-60
2022/04/30 11:47:22;;;;;;;8.00;4.20;;;22.40;29.10;;;;;;5130763;27;20027;-61
2022/04/30 11:49:48;;;;;;;8.18;4.70;;;22.30;29.40;;;;;;5108121;28;20081;-60
2022/04/30 11:52:14;;;;;;;6.18;3.97;;;22.30;29.20;;;;;;5129792;27;20482;-60
2022/04/30 11:54:43;;;;;;;9.63;4.70;;;22.20;29.10;;;;;;5110440;28;20445;-61
2022/04/30 11:57:09;;;;;;;10.13;4.70;;;22.20;29.20;;;;;;5093108;28;20038;-60
2022/04/30 11:59:40;;;;;;;9.68;4.60;;;22.20;29.20;;;;;;5111077;28;20035;-67
2022/04/30 12:02:08;;;;;;;9.18;4.28;;;22.20;29.10;;;;;;5128962;27;20072;-60
2022/04/30 12:04:36;;;;;;;8.43;4.07;;;22.30;29.30;;;;;;5129399;27;20072;-61
2022/04/30 12:07:06;;;;;;;10.20;4.30;;;22.40;29.40;;;;;;5130181;27;20015;-60
2022/04/30 12:09:37;;;;;;;13.40;4.43;;;22.40;29.10;;;;;;5115134;27;20499;-62
2022/04/30 12:12:16;;;;;;;6.47;4.28;;;22.50;29.10;;;;;;5115093;27;20055;-61
2022/04/30 12:14:46;;;;;;;6.70;4.03;;;22.40;29.20;;;;;;5132528;27;20124;-60
2022/04/30 12:17:12;;;;;;;6.55;3.67;;;22.50;29.20;;;;;;5114940;27;20479;-60
2022/04/30 12:25:14;;;;;;;9.75;4.38;;;22.70;28.90;;;;;;5133397;27;20070;-62
2022/04/30 12:27:55;;;;;;;9.40;4.05;;;22.70;29.00;;;;;;5114190;27;20024;-61
2022/04/30 12:30:23;;;;;;;8.55;3.67;;;22.70;28.70;;;;;;5114183;27;20058;-61
2022/04/30 12:33:09;;;;;;;6.03;3.65;;;22.80;28.70;;;;;;5131515;27;20027;-60
2022/04/30 12:35:40;;;;;;;8.40;3.92;;;22.80;28.70;;;;;;5114435;27;20042;-60
2022/04/30 12:38:13;;;;;;;6.18;3.45;;;22.70;29.00;;;;;;5115459;27;20074;-59
2022/04/30 12:40:42;;;;;;;8.00;4.07;;;22.80;28.80;;;;;;5114382;27;20046;-66
2022/04/30 12:43:08;;;;;;;8.32;4.13;;;22.90;28.60;;;;;;5132928;27;20379;-60
2022/04/30 12:45:37;;;;;;;7.72;4.80;;;22.90;28.50;;;;;;5114172;27;20114;-60
2022/04/30 12:48:04;;;;;;;7.28;4.30;;;23.00;28.60;;;;;;5113207;27;20019;-64
2022/04/30 12:50:32;;;;;;;6.28;3.85;;;23.10;28.60;;;;;;5132803;27;20072;-61
2022/04/30 12:52:59;;;;;;;6.03;3.95;;;23.00;28.30;;;;;;5113612;27;20046;-61
2022/04/30 12:55:25;;;;;;;10.60;4.57;;;23.00;28.50;;;;;;5132774;27;20101;-60
2022/04/30 12:57:50;;;;;;;8.02;3.75;;;23.00;28.60;;;;;;5111858;27;20452;-60
2022/04/30 13:00:18;;;;;;;10.80;3.40;;;23.00;28.50;;;;;;5132361;27;20102;-65
2022/04/30 13:02:46;;;;;;;7.63;3.75;;;23.00;28.40;;;;;;5114308;27;20023;-61
2022/04/30 13:05:13;;;;;;;8.82;3.50;;;22.80;28.50;;;;;;5132689;27;20119;-60
2022/04/30 13:07:41;;;;;;;10.35;4.05;;;22.90;28.40;;;;;;5113075;27;20072;-61
2022/04/30 13:15:38;;;;;;;8.18;4.20;;;23.40;27.90;;;;;;5133132;27;20462;-65
2022/04/30 13:18:04;;;;;;;7.97;4.15;;;23.40;27.20;;;;;;5131998;27;20031;-60
2022/04/30 13:20:30;;;;;;;5.60;3.40;;;23.20;27.40;;;;;;5093661;27;20452;-60
2022/04/30 13:22:57;;;;;;;7.03;3.70;;;23.20;27.60;;;;;;5112344;27;20091;-58
2022/04/30 13:25:23;;;;;;;6.18;3.92;;;23.20;27.70;;;;;;5114196;27;20015;-61
2022/04/30 13:27:50;;;;;;;9.65;3.53;;;23.20;27.60;;;;;;5113442;27;20019;-60
2022/04/30 13:30:18;;;;;;;7.15;3.22;;;23.30;27.20;;;;;;5113548;27;20027;-60
2022/04/30 13:32:44;;;;;;;9.38;3.45;;;23.40;26.80;;;;;;5131846;27;20079;-61
2022/04/30 13:35:11;;;;;;;5.97;3.10;;;23.40;26.90;;;;;;5113669;27;20504;-58